sensor_id;sensor_type;location;lat;lon;timestamp;P1;durP1;ratioP1;P2;durP2;ratioP2
57899;SDS011;60605;53.716;19.940;2023-06-22T00:00:07;22.30;;;20.00;;
57899;SDS011;60605;53.716;19.940;2023-06-22T00:05:33;21.20;;;19.20;;
57899;SDS011;60605;53.716;19.940;2023-06-22T00:10:35;23.40;;;21.00;;
57899;SDS011;60605;53.716;19.940;2023-06-22T00:15:37;22.20;;;20.00;;
57899;SDS011;60605;53.716;19.940;2023-06-22T00:20:41;22.90;;;20.50;;
57899;SDS011;60605;53.716;19.940;2023-06-22T00:30:45;22.90;;;20.60;;
57899;SDS011;60605;53.716;19.940;2023-06-22T00:35:47;25.70;;;22.60;;
57899;SDS011;60605;53.716;19.940;2023-06-22T00:40:49;25.30;;;21.60;;
57899;SDS011;60605;53.716;19.940;2023-06-22T00:45:51;22.80;;;20.60;;
57899;SDS011;60605;53.716;19.940;2023-06-22T00:50:54;24.20;;;21.70;;
57899;SDS011;60605;53.716;19.940;2023-06-22T00:55:57;23.50;;;21.20;;
57899;SDS011;60605;53.716;19.940;2023-06-22T01:01:01;25.60;;;23.10;;
57899;SDS011;60605;53.716;19.940;2023-06-22T01:06:08;24.60;;;22.30;;
57899;SDS011;60605;53.716;19.940;2023-06-22T01:16:34;24.60;;;21.90;;
57899;SDS011;60605;53.716;19.940;2023-06-22T01:21:38;23.20;;;20.90;;
57899;SDS011;60605;53.716;19.940;2023-06-22T01:26:51;20.90;;;18.70;;
57899;SDS011;60605;53.716;19.940;2023-06-22T01:31:58;20.60;;;18.60;;
57899;SDS011;60605;53.716;19.940;2023-06-22T01:37:02;20.80;;;18.80;;
57899;SDS011;60605;53.716;19.940;2023-06-22T01:42:05;20.80;;;18.80;;
57899;SDS011;60605;53.716;19.940;2023-06-22T01:47:07;20.70;;;18.50;;
57899;SDS011;60605;53.716;19.940;2023-06-22T01:52:10;19.50;;;17.70;;
57899;SDS011;60605;53.716;19.940;2023-06-22T01:57:13;21.00;;;18.60;;
57899;SDS011;60605;53.716;19.940;2023-06-22T02:02:15;23.00;;;18.90;;
57899;SDS011;60605;53.716;19.940;2023-06-22T02:07:22;20.40;;;18.40;;
57899;SDS011;60605;53.716;19.940;2023-06-22T02:12:26;19.50;;;17.50;;
57899;SDS011;60605;53.716;19.940;2023-06-22T02:17:31;20.30;;;18.20;;
57899;SDS011;60605;53.716;19.940;2023-06-22T02:22:34;21.00;;;18.70;;
57899;SDS011;60605;53.716;19.940;2023-06-22T02:27:36;20.60;;;18.40;;
57899;SDS011;60605;53.716;19.940;2023-06-22T02:32:42;20.30;;;18.30;;
57899;SDS011;60605;53.716;19.940;2023-06-22T02:37:45;19.60;;;17.70;;
57899;SDS011;60605;53.716;19.940;2023-06-22T02:42:48;18.10;;;16.00;;
57899;SDS011;60605;53.716;19.940;2023-06-22T02:47:50;18.30;;;16.60;;
57899;SDS011;60605;53.716;19.940;2023-06-22T02:52:51;17.80;;;16.10;;
57899;SDS011;60605;53.716;19.940;2023-06-22T02:57:53;18.80;;;16.40;;
57899;SDS011;60605;53.716;19.940;2023-06-22T03:02:55;18.10;;;15.90;;
57899;SDS011;60605;53.716;19.940;2023-06-22T03:07:58;18.40;;;16.50;;
57899;SDS011;60605;53.716;19.940;2023-06-22T03:13:00;18.50;;;15.30;;
57899;SDS011;60605;53.716;19.940;2023-06-22T03:18:02;17.50;;;15.90;;
57899;SDS011;60605;53.716;19.940;2023-06-22T03:23:05;17.50;;;15.70;;
57899;SDS011;60605;53.716;19.940;2023-06-22T03:28:06;19.60;;;14.10;;
57899;SDS011;60605;53.716;19.940;2023-06-22T03:33:08;15.00;;;12.80;;
57899;SDS011;60605;53.716;19.940;2023-06-22T03:38:10;12.90;;;11.50;;
57899;SDS011;60605;53.716;19.940;2023-06-22T03:43:12;11.00;;;9.90;;
57899;SDS011;60605;53.716;19.940;2023-06-22T03:48:14;9.80;;;8.80;;
57899;SDS011;60605;53.716;19.940;2023-06-22T03:53:16;9.50;;;8.60;;
57899;SDS011;60605;53.716;19.940;2023-06-22T03:58:18;9.00;;;8.10;;
57899;SDS011;60605;53.716;19.940;2023-06-22T04:03:21;9.60;;;8.30;;
57899;SDS011;60605;53.716;19.940;2023-06-22T04:08:24;11.20;;;7.30;;
57899;SDS011;60605;53.716;19.940;2023-06-22T04:13:26;9.80;;;6.80;;
57899;SDS011;60605;53.716;19.940;2023-06-22T04:18:28;7.30;;;6.60;;
57899;SDS011;60605;53.716;19.940;2023-06-22T04:28:31;6.60;;;6.00;;
57899;SDS011;60605;53.716;19.940;2023-06-22T04:33:36;7.50;;;6.70;;
57899;SDS011;60605;53.716;19.940;2023-06-22T04:38:42;10.70;;;6.80;;
57899;SDS011;60605;53.716;19.940;2023-06-22T04:43:45;7.90;;;6.60;;
57899;SDS011;60605;53.716;19.940;2023-06-22T04:48:55;7.30;;;6.20;;
57899;SDS011;60605;53.716;19.940;2023-06-22T04:53:57;8.50;;;5.90;;
57899;SDS011;60605;53.716;19.940;2023-06-22T04:59:02;6.70;;;6.00;;
57899;SDS011;60605;53.716;19.940;2023-06-22T05:04:07;6.40;;;5.80;;
57899;SDS011;60605;53.716;19.940;2023-06-22T05:09:10;7.20;;;5.70;;
57899;SDS011;60605;53.716;19.940;2023-06-22T05:14:13;6.60;;;5.70;;
57899;SDS011;60605;53.716;19.940;2023-06-22T05:19:15;7.10;;;5.90;;
57899;SDS011;60605;53.716;19.940;2023-06-22T05:24:18;7.20;;;6.00;;
57899;SDS011;60605;53.716;19.940;2023-06-22T05:29:20;9.10;;;6.30;;
57899;SDS011;60605;53.716;19.940;2023-06-22T05:34:23;7.00;;;6.40;;
57899;SDS011;60605;53.716;19.940;2023-06-22T05:39:25;8.50;;;6.60;;
57899;SDS011;60605;53.716;19.940;2023-06-22T05:44:27;8.90;;;7.00;;
57899;SDS011;60605;53.716;19.940;2023-06-22T05:49:29;10.10;;;7.10;;
57899;SDS011;60605;53.716;19.940;2023-06-22T05:54:34;8.90;;;7.00;;
57899;SDS011;60605;53.716;19.940;2023-06-22T05:59:37;8.60;;;7.00;;
57899;SDS011;60605;53.716;19.940;2023-06-22T06:09:40;10.30;;;8.10;;
57899;SDS011;60605;53.716;19.940;2023-06-22T06:14:42;8.60;;;7.80;;
57899;SDS011;60605;53.716;19.940;2023-06-22T06:19:44;15.10;;;9.30;;
57899;SDS011;60605;53.716;19.940;2023-06-22T06:24:47;11.80;;;9.20;;
57899;SDS011;60605;53.716;19.940;2023-06-22T06:29:49;9.40;;;8.30;;
57899;SDS011;60605;53.716;19.940;2023-06-22T06:34:51;11.20;;;9.20;;
57899;SDS011;60605;53.716;19.940;2023-06-22T06:39:53;13.70;;;9.40;;
57899;SDS011;60605;53.716;19.940;2023-06-22T06:44:55;10.30;;;9.30;;
57899;SDS011;60605;53.716;19.940;2023-06-22T06:49:57;10.40;;;8.00;;
57899;SDS011;60605;53.716;19.940;2023-06-22T06:54:59;10.90;;;7.60;;
57899;SDS011;60605;53.716;19.940;2023-06-22T07:00:01;11.50;;;7.20;;
57899;SDS011;60605;53.716;19.940;2023-06-22T07:05:04;8.40;;;7.50;;
57899;SDS011;60605;53.716;19.940;2023-06-22T07:10:07;8.90;;;7.70;;
57899;SDS011;60605;53.716;19.940;2023-06-22T07:15:11;10.40;;;7.70;;
57899;SDS011;60605;53.716;19.940;2023-06-22T07:20:13;12.30;;;8.20;;
57899;SDS011;60605;53.716;19.940;2023-06-22T07:25:16;10.70;;;7.70;;
57899;SDS011;60605;53.716;19.940;2023-06-22T07:30:19;9.50;;;7.60;;
57899;SDS011;60605;53.716;19.940;2023-06-22T07:35:21;10.60;;;8.10;;
57899;SDS011;60605;53.716;19.940;2023-06-22T07:40:23;9.60;;;8.60;;
57899;SDS011;60605;53.716;19.940;2023-06-22T07:45:25;15.50;;;8.70;;
57899;SDS011;60605;53.716;19.940;2023-06-22T07:50:26;11.80;;;9.00;;
57899;SDS011;60605;53.716;19.940;2023-06-22T07:55:29;10.00;;;8.90;;
57899;SDS011;60605;53.716;19.940;2023-06-22T08:00:33;10.10;;;8.50;;
57899;SDS011;60605;53.716;19.940;2023-06-22T08:05:35;10.60;;;8.40;;
57899;SDS011;60605;53.716;19.940;2023-06-22T08:10:38;12.50;;;9.30;;
57899;SDS011;60605;53.716;19.940;2023-06-22T08:15:40;15.30;;;9.50;;
57899;SDS011;60605;53.716;19.940;2023-06-22T08:20:42;11.40;;;10.20;;
57899;SDS011;60605;53.716;19.940;2023-06-22T08:25:45;11.90;;;10.60;;
57899;SDS011;60605;53.716;19.940;2023-06-22T08:30:47;11.90;;;9.70;;
57899;SDS011;60605;53.716;19.940;2023-06-22T08:35:49;10.80;;;9.70;;
57899;SDS011;60605;53.716;19.940;2023-06-22T08:40:51;10.30;;;9.10;;
57899;SDS011;60605;53.716;19.940;2023-06-22T08:45:53;10.40;;;9.40;;
57899;SDS011;60605;53.716;19.940;2023-06-22T08:50:55;13.80;;;8.20;;
57899;SDS011;60605;53.716;19.940;2023-06-22T08:55:57;10.20;;;7.70;;
57899;SDS011;60605;53.716;19.940;2023-06-22T09:00:59;8.20;;;6.20;;
57899;SDS011;60605;53.716;19.940;2023-06-22T09:06:02;8.30;;;5.80;;
57899;SDS011;60605;53.716;19.940;2023-06-22T09:11:05;8.20;;;5.40;;
57899;SDS011;60605;53.716;19.940;2023-06-22T09:16:07;7.70;;;4.90;;
57899;SDS011;60605;53.716;19.940;2023-06-22T09:21:09;5.80;;;5.30;;
57899;SDS011;60605;53.716;19.940;2023-06-22T09:26:11;7.60;;;5.10;;
57899;SDS011;60605;53.716;19.940;2023-06-22T09:31:14;6.80;;;4.50;;
57899;SDS011;60605;53.716;19.940;2023-06-22T09:36:18;6.10;;;4.30;;
57899;SDS011;60605;53.716;19.940;2023-06-22T09:41:20;5.00;;;4.40;;
57899;SDS011;60605;53.716;19.940;2023-06-22T09:46:22;4.40;;;3.60;;
57899;SDS011;60605;53.716;19.940;2023-06-22T09:51:26;6.60;;;4.30;;
57899;SDS011;60605;53.716;19.940;2023-06-22T09:56:28;4.00;;;3.60;;
57899;SDS011;60605;53.716;19.940;2023-06-22T10:01:31;5.10;;;3.40;;
57899;SDS011;60605;53.716;19.940;2023-06-22T10:06:33;5.70;;;4.20;;
57899;SDS011;60605;53.716;19.940;2023-06-22T10:11:35;4.50;;;3.90;;
57899;SDS011;60605;53.716;19.940;2023-06-22T10:16:38;6.90;;;3.50;;
57899;SDS011;60605;53.716;19.940;2023-06-22T10:21:42;7.00;;;3.60;;
57899;SDS011;60605;53.716;19.940;2023-06-22T10:26:44;4.40;;;3.80;;
57899;SDS011;60605;53.716;19.940;2023-06-22T10:31:46;6.00;;;3.80;;
57899;SDS011;60605;53.716;19.940;2023-06-22T10:36:49;5.30;;;3.70;;
57899;SDS011;60605;53.716;19.940;2023-06-22T10:41:51;4.10;;;3.80;;
57899;SDS011;60605;53.716;19.940;2023-06-22T10:46:53;5.50;;;3.20;;
57899;SDS011;60605;53.716;19.940;2023-06-22T10:51:55;3.70;;;3.30;;
57899;SDS011;60605;53.716;19.940;2023-06-22T10:56:57;5.00;;;3.30;;
57899;SDS011;60605;53.716;19.940;2023-06-22T11:01:59;5.70;;;3.90;;
57899;SDS011;60605;53.716;19.940;2023-06-22T11:07:01;4.20;;;3.50;;
57899;SDS011;60605;53.716;19.940;2023-06-22T11:12:03;3.20;;;2.80;;
57899;SDS011;60605;53.716;19.940;2023-06-22T11:17:05;3.70;;;3.30;;
57899;SDS011;60605;53.716;19.940;2023-06-22T11:22:09;3.40;;;2.80;;
57899;SDS011;60605;53.716;19.940;2023-06-22T11:27:11;3.20;;;2.80;;
57899;SDS011;60605;53.716;19.940;2023-06-22T11:32:13;5.20;;;2.80;;
57899;SDS011;60605;53.716;19.940;2023-06-22T11:37:16;2.70;;;2.50;;
57899;SDS011;60605;53.716;19.940;2023-06-22T11:42:18;3.00;;;2.60;;
57899;SDS011;60605;53.716;19.940;2023-06-22T11:47:20;4.80;;;2.50;;
57899;SDS011;60605;53.716;19.940;2023-06-22T11:52:22;3.30;;;2.60;;
57899;SDS011;60605;53.716;19.940;2023-06-22T11:57:24;3.70;;;2.50;;
57899;SDS011;60605;53.716;19.940;2023-06-22T12:02:26;3.00;;;2.70;;
57899;SDS011;60605;53.716;19.940;2023-06-22T12:07:28;2.80;;;2.50;;
57899;SDS011;60605;53.716;19.940;2023-06-22T12:12:30;3.90;;;2.30;;
57899;SDS011;60605;53.716;19.940;2023-06-22T12:17:32;4.90;;;2.50;;
57899;SDS011;60605;53.716;19.940;2023-06-22T12:22:34;2.70;;;2.20;;
57899;SDS011;60605;53.716;19.940;2023-06-22T12:27:36;2.50;;;2.20;;
57899;SDS011;60605;53.716;19.940;2023-06-22T12:32:39;3.60;;;2.50;;
57899;SDS011;60605;53.716;19.940;2023-06-22T12:37:41;3.00;;;2.20;;
57899;SDS011;60605;53.716;19.940;2023-06-22T12:42:46;3.80;;;2.40;;
57899;SDS011;60605;53.716;19.940;2023-06-22T12:47:48;3.10;;;2.50;;
57899;SDS011;60605;53.716;19.940;2023-06-22T12:52:51;3.30;;;2.90;;
57899;SDS011;60605;53.716;19.940;2023-06-22T12:57:53;2.90;;;2.60;;
57899;SDS011;60605;53.716;19.940;2023-06-22T13:02:55;3.50;;;2.40;;
57899;SDS011;60605;53.716;19.940;2023-06-22T13:07:58;4.20;;;2.50;;
57899;SDS011;60605;53.716;19.940;2023-06-22T13:13:00;2.70;;;2.30;;
57899;SDS011;60605;53.716;19.940;2023-06-22T13:18:02;2.60;;;2.40;;
57899;SDS011;60605;53.716;19.940;2023-06-22T13:23:05;3.00;;;2.50;;
57899;SDS011;60605;53.716;19.940;2023-06-22T13:28:06;3.20;;;2.50;;
57899;SDS011;60605;53.716;19.940;2023-06-22T13:33:20;2.70;;;2.50;;
57899;SDS011;60605;53.716;19.940;2023-06-22T13:38:22;2.60;;;2.40;;
57899;SDS011;60605;53.716;19.940;2023-06-22T13:43:26;2.20;;;2.00;;
57899;SDS011;60605;53.716;19.940;2023-06-22T13:48:28;2.30;;;2.10;;
57899;SDS011;60605;53.716;19.940;2023-06-22T13:58:32;4.20;;;2.70;;
57899;SDS011;60605;53.716;19.940;2023-06-22T14:13:40;2.80;;;2.00;;
57899;SDS011;60605;53.716;19.940;2023-06-22T14:18:44;3.20;;;2.50;;
57899;SDS011;60605;53.716;19.940;2023-06-22T14:23:46;8.00;;;3.00;;
57899;SDS011;60605;53.716;19.940;2023-06-22T14:28:51;3.50;;;2.70;;
57899;SDS011;60605;53.716;19.940;2023-06-22T14:33:55;4.30;;;2.50;;
57899;SDS011;60605;53.716;19.940;2023-06-22T14:43:59;3.70;;;2.30;;
57899;SDS011;60605;53.716;19.940;2023-06-22T14:54:02;3.00;;;2.40;;
57899;SDS011;60605;53.716;19.940;2023-06-22T14:59:05;4.00;;;2.40;;
57899;SDS011;60605;53.716;19.940;2023-06-22T15:04:08;3.00;;;2.20;;
57899;SDS011;60605;53.716;19.940;2023-06-22T15:09:10;3.70;;;2.30;;
57899;SDS011;60605;53.716;19.940;2023-06-22T15:14:13;3.80;;;2.60;;
57899;SDS011;60605;53.716;19.940;2023-06-22T15:19:16;4.40;;;2.90;;
57899;SDS011;60605;53.716;19.940;2023-06-22T15:24:18;3.60;;;2.40;;
57899;SDS011;60605;53.716;19.940;2023-06-22T15:34:21;3.00;;;2.70;;
57899;SDS011;60605;53.716;19.940;2023-06-22T15:44:26;3.70;;;2.20;;
57899;SDS011;60605;53.716;19.940;2023-06-22T15:49:28;4.00;;;2.50;;
57899;SDS011;60605;53.716;19.940;2023-06-22T15:54:30;4.30;;;2.50;;
57899;SDS011;60605;53.716;19.940;2023-06-22T15:59:32;3.90;;;2.80;;
57899;SDS011;60605;53.716;19.940;2023-06-22T16:09:37;3.30;;;2.40;;
57899;SDS011;60605;53.716;19.940;2023-06-22T16:14:39;2.60;;;2.40;;
57899;SDS011;60605;53.716;19.940;2023-06-22T16:19:43;3.20;;;2.30;;
57899;SDS011;60605;53.716;19.940;2023-06-22T16:29:48;3.80;;;2.60;;
57899;SDS011;60605;53.716;19.940;2023-06-22T16:34:50;3.60;;;2.30;;
57899;SDS011;60605;53.716;19.940;2023-06-22T16:39:52;3.10;;;2.50;;
57899;SDS011;60605;53.716;19.940;2023-06-22T16:44:55;4.80;;;2.50;;
57899;SDS011;60605;53.716;19.940;2023-06-22T16:49:57;4.60;;;2.50;;
57899;SDS011;60605;53.716;19.940;2023-06-22T16:54:59;4.80;;;2.30;;
57899;SDS011;60605;53.716;19.940;2023-06-22T17:00:06;3.10;;;2.50;;
57899;SDS011;60605;53.716;19.940;2023-06-22T17:05:14;4.80;;;2.60;;
57899;SDS011;60605;53.716;19.940;2023-06-22T17:10:16;3.00;;;2.50;;
57899;SDS011;60605;53.716;19.940;2023-06-22T17:15:24;2.70;;;2.40;;
57899;SDS011;60605;53.716;19.940;2023-06-22T17:20:27;3.70;;;2.30;;
57899;SDS011;60605;53.716;19.940;2023-06-22T17:25:32;2.40;;;2.20;;
57899;SDS011;60605;53.716;19.940;2023-06-22T17:30:35;3.70;;;2.60;;
57899;SDS011;60605;53.716;19.940;2023-06-22T17:35:46;4.90;;;2.60;;
57899;SDS011;60605;53.716;19.940;2023-06-22T17:40:49;2.70;;;2.50;;
57899;SDS011;60605;53.716;19.940;2023-06-22T17:45:52;2.50;;;2.30;;
57899;SDS011;60605;53.716;19.940;2023-06-22T17:50:59;2.70;;;2.50;;
57899;SDS011;60605;53.716;19.940;2023-06-22T17:56:02;4.20;;;2.60;;
57899;SDS011;60605;53.716;19.940;2023-06-22T18:01:04;3.50;;;2.40;;
57899;SDS011;60605;53.716;19.940;2023-06-22T18:06:06;3.80;;;2.50;;
57899;SDS011;60605;53.716;19.940;2023-06-22T18:11:08;3.80;;;2.60;;
57899;SDS011;60605;53.716;19.940;2023-06-22T18:16:11;6.40;;;2.90;;
57899;SDS011;60605;53.716;19.940;2023-06-22T18:21:14;5.90;;;3.40;;
57899;SDS011;60605;53.716;19.940;2023-06-22T18:26:20;3.80;;;3.20;;
57899;SDS011;60605;53.716;19.940;2023-06-22T18:31:27;5.10;;;3.40;;
57899;SDS011;60605;53.716;19.940;2023-06-22T18:36:29;6.90;;;3.20;;
57899;SDS011;60605;53.716;19.940;2023-06-22T18:41:40;4.80;;;3.20;;
57899;SDS011;60605;53.716;19.940;2023-06-22T18:46:50;5.80;;;3.90;;
57899;SDS011;60605;53.716;19.940;2023-06-22T18:52:06;4.30;;;3.30;;
57899;SDS011;60605;53.716;19.940;2023-06-22T19:02:44;5.50;;;3.40;;
57899;SDS011;60605;53.716;19.940;2023-06-22T19:28:30;6.10;;;3.80;;
57899;SDS011;60605;53.716;19.940;2023-06-22T19:33:33;5.70;;;4.00;;
57899;SDS011;60605;53.716;19.940;2023-06-22T19:38:37;6.10;;;3.60;;
57899;SDS011;60605;53.716;19.940;2023-06-22T19:43:40;8.20;;;4.40;;
57899;SDS011;60605;53.716;19.940;2023-06-22T19:48:44;5.60;;;4.00;;
57899;SDS011;60605;53.716;19.940;2023-06-22T19:53:47;5.00;;;3.90;;
57899;SDS011;60605;53.716;19.940;2023-06-22T19:58:50;3.60;;;3.20;;
57899;SDS011;60605;53.716;19.940;2023-06-22T20:09:00;4.10;;;3.20;;
57899;SDS011;60605;53.716;19.940;2023-06-22T20:14:08;5.00;;;3.50;;
57899;SDS011;60605;53.716;19.940;2023-06-22T20:19:11;4.40;;;3.20;;
57899;SDS011;60605;53.716;19.940;2023-06-22T20:24:17;5.80;;;4.00;;
57899;SDS011;60605;53.716;19.940;2023-06-22T20:29:26;5.70;;;3.20;;
57899;SDS011;60605;53.716;19.940;2023-06-22T20:34:38;5.50;;;3.70;;
57899;SDS011;60605;53.716;19.940;2023-06-22T20:39:40;7.10;;;3.40;;
57899;SDS011;60605;53.716;19.940;2023-06-22T20:44:43;4.50;;;3.30;;
57899;SDS011;60605;53.716;19.940;2023-06-22T20:49:46;5.20;;;3.60;;
57899;SDS011;60605;53.716;19.940;2023-06-22T20:54:50;4.40;;;3.50;;
57899;SDS011;60605;53.716;19.940;2023-06-22T20:59:53;5.30;;;3.40;;
57899;SDS011;60605;53.716;19.940;2023-06-22T21:04:55;4.50;;;3.40;;
57899;SDS011;60605;53.716;19.940;2023-06-22T21:09:57;7.30;;;3.90;;
57899;SDS011;60605;53.716;19.940;2023-06-22T21:14:59;4.50;;;3.60;;
57899;SDS011;60605;53.716;19.940;2023-06-22T21:20:02;6.90;;;4.20;;
57899;SDS011;60605;53.716;19.940;2023-06-22T21:25:08;4.40;;;3.60;;
57899;SDS011;60605;53.716;19.940;2023-06-22T21:30:12;5.70;;;4.00;;
57899;SDS011;60605;53.716;19.940;2023-06-22T21:35:16;6.00;;;4.10;;
57899;SDS011;60605;53.716;19.940;2023-06-22T21:40:18;7.30;;;4.10;;
57899;SDS011;60605;53.716;19.940;2023-06-22T21:45:20;7.50;;;4.30;;
57899;SDS011;60605;53.716;19.940;2023-06-22T21:50:22;7.80;;;3.50;;
57899;SDS011;60605;53.716;19.940;2023-06-22T21:55:24;5.50;;;4.00;;
57899;SDS011;60605;53.716;19.940;2023-06-22T22:00:26;6.40;;;4.20;;
57899;SDS011;60605;53.716;19.940;2023-06-22T22:05:28;5.70;;;4.30;;
57899;SDS011;60605;53.716;19.940;2023-06-22T22:10:31;5.20;;;4.40;;
57899;SDS011;60605;53.716;19.940;2023-06-22T22:15:35;6.10;;;4.50;;
57899;SDS011;60605;53.716;19.940;2023-06-22T22:20:39;5.50;;;4.90;;
57899;SDS011;60605;53.716;19.940;2023-06-22T22:25:41;6.20;;;4.50;;
57899;SDS011;60605;53.716;19.940;2023-06-22T22:30:43;7.00;;;4.20;;
57899;SDS011;60605;53.716;19.940;2023-06-22T22:35:46;6.00;;;4.00;;
57899;SDS011;60605;53.716;19.940;2023-06-22T22:40:47;6.80;;;5.10;;
57899;SDS011;60605;53.716;19.940;2023-06-22T22:45:49;11.10;;;4.60;;
57899;SDS011;60605;53.716;19.940;2023-06-22T22:50:51;6.00;;;4.20;;
57899;SDS011;60605;53.716;19.940;2023-06-22T22:55:54;7.10;;;4.60;;
57899;SDS011;60605;53.716;19.940;2023-06-22T23:00:56;9.50;;;6.40;;
57899;SDS011;60605;53.716;19.940;2023-06-22T23:05:58;9.50;;;5.40;;
57899;SDS011;60605;53.716;19.940;2023-06-22T23:11:00;12.30;;;5.70;;
57899;SDS011;60605;53.716;19.940;2023-06-22T23:16:02;7.90;;;4.70;;
57899;SDS011;60605;53.716;19.940;2023-06-22T23:21:04;5.80;;;4.30;;
57899;SDS011;60605;53.716;19.940;2023-06-22T23:26:07;8.80;;;4.70;;
57899;SDS011;60605;53.716;19.940;2023-06-22T23:31:09;6.00;;;4.60;;
57899;SDS011;60605;53.716;19.940;2023-06-22T23:36:11;5.50;;;4.40;;
57899;SDS011;60605;53.716;19.940;2023-06-22T23:41:13;9.20;;;5.20;;
57899;SDS011;60605;53.716;19.940;2023-06-22T23:46:15;6.70;;;4.70;;
57899;SDS011;60605;53.716;19.940;2023-06-22T23:51:17;5.50;;;4.40;;
57899;SDS011;60605;53.716;19.940;2023-06-22T23:56:19;10.60;;;5.70;;
